sensor_id;sensor_type;location;lat;lon;timestamp;P1;durP1;ratioP1;P2;durP2;ratioP2
62704;SDS011;48767;50.754;8.772;2022-08-19T00:00:37;25.58;;;15.45;;
62704;SDS011;48767;50.754;8.772;2022-08-19T00:03:04;22.95;;;14.57;;
62704;SDS011;48767;50.754;8.772;2022-08-19T00:05:31;22.17;;;13.65;;
62704;SDS011;48767;50.754;8.772;2022-08-19T00:07:58;23.20;;;16.40;;
62704;SDS011;48767;50.754;8.772;2022-08-19T00:10:24;22.30;;;14.60;;
62704;SDS011;48767;50.754;8.772;2022-08-19T00:12:51;22.35;;;14.52;;
62704;SDS011;48767;50.754;8.772;2022-08-19T00:15:20;21.60;;;14.25;;
62704;SDS011;48767;50.754;8.772;2022-08-19T00:17:48;19.17;;;12.88;;
62704;SDS011;48767;50.754;8.772;2022-08-19T00:22:43;21.27;;;13.35;;
62704;SDS011;48767;50.754;8.772;2022-08-19T00:25:10;19.67;;;14.68;;
62704;SDS011;48767;50.754;8.772;2022-08-19T00:27:37;23.25;;;14.50;;
62704;SDS011;48767;50.754;8.772;2022-08-19T00:30:04;20.70;;;13.75;;
62704;SDS011;48767;50.754;8.772;2022-08-19T00:32:32;23.25;;;14.10;;
62704;SDS011;48767;50.754;8.772;2022-08-19T00:35:01;20.38;;;13.93;;
62704;SDS011;48767;50.754;8.772;2022-08-19T00:37:27;18.60;;;12.07;;
62704;SDS011;48767;50.754;8.772;2022-08-19T00:39:54;22.00;;;13.93;;
62704;SDS011;48767;50.754;8.772;2022-08-19T00:42:21;17.65;;;12.93;;
62704;SDS011;48767;50.754;8.772;2022-08-19T00:44:49;17.60;;;13.13;;
62704;SDS011;48767;50.754;8.772;2022-08-19T00:47:16;20.10;;;12.93;;
62704;SDS011;48767;50.754;8.772;2022-08-19T00:49:43;18.77;;;13.85;;
62704;SDS011;48767;50.754;8.772;2022-08-19T00:52:18;19.02;;;13.13;;
62704;SDS011;48767;50.754;8.772;2022-08-19T00:54:47;20.73;;;13.38;;
62704;SDS011;48767;50.754;8.772;2022-08-19T00:57:15;20.42;;;13.27;;
62704;SDS011;48767;50.754;8.772;2022-08-19T00:59:46;18.08;;;12.73;;
62704;SDS011;48767;50.754;8.772;2022-08-19T01:02:17;22.55;;;13.65;;
62704;SDS011;48767;50.754;8.772;2022-08-19T01:04:44;21.05;;;13.52;;
62704;SDS011;48767;50.754;8.772;2022-08-19T01:07:10;22.33;;;14.45;;
62704;SDS011;48767;50.754;8.772;2022-08-19T01:09:39;19.80;;;13.38;;
62704;SDS011;48767;50.754;8.772;2022-08-19T01:12:06;19.38;;;13.63;;
62704;SDS011;48767;50.754;8.772;2022-08-19T01:14:34;19.70;;;13.18;;
62704;SDS011;48767;50.754;8.772;2022-08-19T01:17:01;21.08;;;13.48;;
62704;SDS011;48767;50.754;8.772;2022-08-19T01:19:28;19.15;;;13.65;;
62704;SDS011;48767;50.754;8.772;2022-08-19T01:22:00;20.75;;;14.35;;
62704;SDS011;48767;50.754;8.772;2022-08-19T01:24:33;18.00;;;12.80;;
62704;SDS011;48767;50.754;8.772;2022-08-19T01:27:00;22.13;;;13.70;;
62704;SDS011;48767;50.754;8.772;2022-08-19T01:29:30;20.75;;;13.68;;
62704;SDS011;48767;50.754;8.772;2022-08-19T01:31:56;22.08;;;13.48;;
62704;SDS011;48767;50.754;8.772;2022-08-19T01:34:23;20.02;;;14.10;;
62704;SDS011;48767;50.754;8.772;2022-08-19T01:36:50;20.33;;;12.50;;
62704;SDS011;48767;50.754;8.772;2022-08-19T01:39:18;17.25;;;12.65;;
62704;SDS011;48767;50.754;8.772;2022-08-19T01:41:48;16.55;;;12.00;;
62704;SDS011;48767;50.754;8.772;2022-08-19T01:44:15;17.08;;;11.90;;
62704;SDS011;48767;50.754;8.772;2022-08-19T01:46:46;16.60;;;11.57;;
62704;SDS011;48767;50.754;8.772;2022-08-19T01:49:14;15.73;;;10.85;;
62704;SDS011;48767;50.754;8.772;2022-08-19T01:51:42;16.08;;;11.63;;
62704;SDS011;48767;50.754;8.772;2022-08-19T01:54:09;19.25;;;11.88;;
62704;SDS011;48767;50.754;8.772;2022-08-19T01:56:36;15.98;;;11.15;;
62704;SDS011;48767;50.754;8.772;2022-08-19T01:59:08;15.65;;;11.02;;
62704;SDS011;48767;50.754;8.772;2022-08-19T02:04:04;18.10;;;10.52;;
62704;SDS011;48767;50.754;8.772;2022-08-19T02:06:31;13.43;;;9.77;;
62704;SDS011;48767;50.754;8.772;2022-08-19T02:08:58;16.33;;;11.07;;
62704;SDS011;48767;50.754;8.772;2022-08-19T02:11:26;13.95;;;11.52;;
62704;SDS011;48767;50.754;8.772;2022-08-19T02:13:56;15.02;;;10.77;;
62704;SDS011;48767;50.754;8.772;2022-08-19T02:16:25;18.02;;;11.10;;
62704;SDS011;48767;50.754;8.772;2022-08-19T02:21:18;19.55;;;10.02;;
62704;SDS011;48767;50.754;8.772;2022-08-19T02:23:46;16.58;;;10.07;;
62704;SDS011;48767;50.754;8.772;2022-08-19T02:26:13;16.25;;;11.38;;
62704;SDS011;48767;50.754;8.772;2022-08-19T02:28:40;14.02;;;9.77;;
62704;SDS011;48767;50.754;8.772;2022-08-19T02:31:08;16.85;;;10.10;;
62704;SDS011;48767;50.754;8.772;2022-08-19T02:33:37;15.45;;;10.40;;
62704;SDS011;48767;50.754;8.772;2022-08-19T02:36:04;12.75;;;9.73;;
62704;SDS011;48767;50.754;8.772;2022-08-19T02:38:31;14.48;;;10.52;;
62704;SDS011;48767;50.754;8.772;2022-08-19T02:40:57;13.90;;;10.07;;
62704;SDS011;48767;50.754;8.772;2022-08-19T02:43:25;17.27;;;9.50;;
62704;SDS011;48767;50.754;8.772;2022-08-19T02:45:54;14.25;;;10.05;;
62704;SDS011;48767;50.754;8.772;2022-08-19T02:48:21;16.33;;;9.80;;
62704;SDS011;48767;50.754;8.772;2022-08-19T02:50:51;13.43;;;8.70;;
62704;SDS011;48767;50.754;8.772;2022-08-19T02:53:20;12.73;;;8.93;;
62704;SDS011;48767;50.754;8.772;2022-08-19T02:55:48;15.10;;;10.13;;
62704;SDS011;48767;50.754;8.772;2022-08-19T02:58:16;16.65;;;9.45;;
62704;SDS011;48767;50.754;8.772;2022-08-19T03:00:44;14.90;;;9.88;;
62704;SDS011;48767;50.754;8.772;2022-08-19T03:03:11;15.68;;;10.65;;
62704;SDS011;48767;50.754;8.772;2022-08-19T03:05:38;11.10;;;8.57;;
62704;SDS011;48767;50.754;8.772;2022-08-19T03:08:06;12.00;;;8.57;;
62704;SDS011;48767;50.754;8.772;2022-08-19T03:10:33;12.60;;;9.57;;
62704;SDS011;48767;50.754;8.772;2022-08-19T03:13:07;13.63;;;9.88;;
62704;SDS011;48767;50.754;8.772;2022-08-19T03:15:33;12.85;;;9.27;;
62704;SDS011;48767;50.754;8.772;2022-08-19T03:18:00;13.23;;;9.23;;
62704;SDS011;48767;50.754;8.772;2022-08-19T03:20:26;11.68;;;8.50;;
62704;SDS011;48767;50.754;8.772;2022-08-19T03:22:53;12.45;;;8.48;;
62704;SDS011;48767;50.754;8.772;2022-08-19T03:25:21;12.77;;;9.00;;
62704;SDS011;48767;50.754;8.772;2022-08-19T03:27:47;10.55;;;8.43;;
62704;SDS011;48767;50.754;8.772;2022-08-19T03:30:14;13.25;;;8.82;;
62704;SDS011;48767;50.754;8.772;2022-08-19T03:32:40;12.20;;;9.30;;
62704;SDS011;48767;50.754;8.772;2022-08-19T03:35:07;16.50;;;8.82;;
62704;SDS011;48767;50.754;8.772;2022-08-19T03:37:34;11.45;;;8.82;;
62704;SDS011;48767;50.754;8.772;2022-08-19T03:40:00;13.77;;;9.15;;
62704;SDS011;48767;50.754;8.772;2022-08-19T03:42:30;13.52;;;8.85;;
62704;SDS011;48767;50.754;8.772;2022-08-19T03:44:56;13.32;;;9.77;;
62704;SDS011;48767;50.754;8.772;2022-08-19T03:47:23;12.52;;;9.25;;
62704;SDS011;48767;50.754;8.772;2022-08-19T03:49:50;13.65;;;8.95;;
62704;SDS011;48767;50.754;8.772;2022-08-19T03:52:17;12.77;;;9.68;;
62704;SDS011;48767;50.754;8.772;2022-08-19T03:54:43;12.73;;;9.38;;
62704;SDS011;48767;50.754;8.772;2022-08-19T03:57:10;14.43;;;10.23;;
62704;SDS011;48767;50.754;8.772;2022-08-19T03:59:38;13.88;;;9.40;;
62704;SDS011;48767;50.754;8.772;2022-08-19T04:02:06;11.45;;;8.68;;
62704;SDS011;48767;50.754;8.772;2022-08-19T04:04:34;12.55;;;9.07;;
62704;SDS011;48767;50.754;8.772;2022-08-19T04:07:02;12.95;;;8.63;;
62704;SDS011;48767;50.754;8.772;2022-08-19T04:09:28;14.02;;;9.77;;
62704;SDS011;48767;50.754;8.772;2022-08-19T04:11:55;14.43;;;8.95;;
62704;SDS011;48767;50.754;8.772;2022-08-19T04:14:24;11.98;;;8.77;;
62704;SDS011;48767;50.754;8.772;2022-08-19T04:16:54;12.07;;;8.63;;
62704;SDS011;48767;50.754;8.772;2022-08-19T04:21:49;15.38;;;8.85;;
62704;SDS011;48767;50.754;8.772;2022-08-19T04:24:18;12.55;;;10.02;;
62704;SDS011;48767;50.754;8.772;2022-08-19T04:31:40;16.20;;;9.98;;
62704;SDS011;48767;50.754;8.772;2022-08-19T04:34:12;11.40;;;8.15;;
62704;SDS011;48767;50.754;8.772;2022-08-19T04:36:40;13.38;;;9.88;;
62704;SDS011;48767;50.754;8.772;2022-08-19T04:39:11;13.55;;;8.55;;
62704;SDS011;48767;50.754;8.772;2022-08-19T04:41:40;12.23;;;8.95;;
62704;SDS011;48767;50.754;8.772;2022-08-19T04:44:24;11.73;;;9.13;;
62704;SDS011;48767;50.754;8.772;2022-08-19T04:46:51;13.73;;;9.00;;
62704;SDS011;48767;50.754;8.772;2022-08-19T04:49:20;13.63;;;9.27;;
62704;SDS011;48767;50.754;8.772;2022-08-19T04:51:48;15.27;;;9.38;;
62704;SDS011;48767;50.754;8.772;2022-08-19T04:54:17;12.25;;;9.32;;
62704;SDS011;48767;50.754;8.772;2022-08-19T04:56:47;16.85;;;10.75;;
62704;SDS011;48767;50.754;8.772;2022-08-19T04:59:15;11.65;;;9.40;;
62704;SDS011;48767;50.754;8.772;2022-08-19T05:01:42;15.05;;;9.50;;
62704;SDS011;48767;50.754;8.772;2022-08-19T05:04:15;14.65;;;10.07;;
62704;SDS011;48767;50.754;8.772;2022-08-19T05:06:45;14.35;;;9.00;;
62704;SDS011;48767;50.754;8.772;2022-08-19T05:09:12;12.95;;;8.88;;
62704;SDS011;48767;50.754;8.772;2022-08-19T05:11:40;15.57;;;9.90;;
62704;SDS011;48767;50.754;8.772;2022-08-19T05:14:06;13.15;;;8.90;;
62704;SDS011;48767;50.754;8.772;2022-08-19T05:16:34;11.85;;;8.25;;
62704;SDS011;48767;50.754;8.772;2022-08-19T05:19:01;10.77;;;8.10;;
62704;SDS011;48767;50.754;8.772;2022-08-19T05:21:46;11.23;;;8.27;;
62704;SDS011;48767;50.754;8.772;2022-08-19T05:24:29;13.43;;;9.77;;
62704;SDS011;48767;50.754;8.772;2022-08-19T05:26:59;16.23;;;9.63;;
62704;SDS011;48767;50.754;8.772;2022-08-19T05:29:27;11.65;;;8.60;;
62704;SDS011;48767;50.754;8.772;2022-08-19T05:31:56;10.82;;;8.60;;
62704;SDS011;48767;50.754;8.772;2022-08-19T05:36:54;11.05;;;8.52;;
62704;SDS011;48767;50.754;8.772;2022-08-19T05:39:23;11.10;;;8.05;;
62704;SDS011;48767;50.754;8.772;2022-08-19T05:41:52;12.27;;;9.18;;
62704;SDS011;48767;50.754;8.772;2022-08-19T05:44:22;13.90;;;8.70;;
62704;SDS011;48767;50.754;8.772;2022-08-19T05:46:49;11.20;;;9.10;;
62704;SDS011;48767;50.754;8.772;2022-08-19T05:49:19;13.65;;;8.82;;
62704;SDS011;48767;50.754;8.772;2022-08-19T05:51:47;10.82;;;8.27;;
62704;SDS011;48767;50.754;8.772;2022-08-19T05:54:16;11.13;;;9.00;;
62704;SDS011;48767;50.754;8.772;2022-08-19T05:56:44;10.90;;;7.90;;
62704;SDS011;48767;50.754;8.772;2022-08-19T05:59:12;11.88;;;8.77;;
62704;SDS011;48767;50.754;8.772;2022-08-19T06:01:42;11.98;;;8.25;;
62704;SDS011;48767;50.754;8.772;2022-08-19T06:04:11;12.20;;;8.43;;
62704;SDS011;48767;50.754;8.772;2022-08-19T06:06:39;13.55;;;8.30;;
62704;SDS011;48767;50.754;8.772;2022-08-19T06:09:06;12.68;;;7.43;;
62704;SDS011;48767;50.754;8.772;2022-08-19T06:11:36;11.02;;;7.97;;
62704;SDS011;48767;50.754;8.772;2022-08-19T06:14:06;11.95;;;8.00;;
62704;SDS011;48767;50.754;8.772;2022-08-19T06:16:34;12.85;;;8.07;;
62704;SDS011;48767;50.754;8.772;2022-08-19T06:19:05;11.10;;;8.55;;
62704;SDS011;48767;50.754;8.772;2022-08-19T06:21:34;12.43;;;9.10;;
62704;SDS011;48767;50.754;8.772;2022-08-19T06:24:03;11.20;;;8.80;;
62704;SDS011;48767;50.754;8.772;2022-08-19T06:26:30;11.65;;;8.27;;
62704;SDS011;48767;50.754;8.772;2022-08-19T06:28:58;11.32;;;8.63;;
62704;SDS011;48767;50.754;8.772;2022-08-19T06:33:53;11.23;;;8.88;;
62704;SDS011;48767;50.754;8.772;2022-08-19T06:36:20;12.05;;;8.80;;
62704;SDS011;48767;50.754;8.772;2022-08-19T06:38:56;12.57;;;9.20;;
62704;SDS011;48767;50.754;8.772;2022-08-19T06:41:23;10.52;;;7.45;;
62704;SDS011;48767;50.754;8.772;2022-08-19T06:43:50;9.98;;;8.05;;
62704;SDS011;48767;50.754;8.772;2022-08-19T06:46:20;10.60;;;7.93;;
62704;SDS011;48767;50.754;8.772;2022-08-19T06:48:47;10.75;;;8.18;;
62704;SDS011;48767;50.754;8.772;2022-08-19T06:51:15;13.88;;;8.85;;
62704;SDS011;48767;50.754;8.772;2022-08-19T06:53:43;11.15;;;7.93;;
62704;SDS011;48767;50.754;8.772;2022-08-19T06:56:12;10.55;;;7.65;;
62704;SDS011;48767;50.754;8.772;2022-08-19T06:58:39;8.82;;;7.68;;
62704;SDS011;48767;50.754;8.772;2022-08-19T07:01:06;9.05;;;6.88;;
62704;SDS011;48767;50.754;8.772;2022-08-19T07:03:34;8.90;;;6.78;;
62704;SDS011;48767;50.754;8.772;2022-08-19T07:06:02;9.43;;;7.10;;
62704;SDS011;48767;50.754;8.772;2022-08-19T07:08:30;8.80;;;6.53;;
62704;SDS011;48767;50.754;8.772;2022-08-19T07:10:56;7.45;;;6.22;;
62704;SDS011;48767;50.754;8.772;2022-08-19T07:13:23;8.50;;;6.13;;
62704;SDS011;48767;50.754;8.772;2022-08-19T07:15:50;7.75;;;6.47;;
62704;SDS011;48767;50.754;8.772;2022-08-19T07:18:17;8.32;;;6.18;;
62704;SDS011;48767;50.754;8.772;2022-08-19T07:20:46;8.68;;;5.95;;
62704;SDS011;48767;50.754;8.772;2022-08-19T07:23:13;7.60;;;5.45;;
62704;SDS011;48767;50.754;8.772;2022-08-19T07:25:40;6.35;;;5.28;;
62704;SDS011;48767;50.754;8.772;2022-08-19T07:28:07;7.43;;;5.93;;
62704;SDS011;48767;50.754;8.772;2022-08-19T07:30:35;11.07;;;5.63;;
62704;SDS011;48767;50.754;8.772;2022-08-19T07:33:02;7.05;;;5.28;;
62704;SDS011;48767;50.754;8.772;2022-08-19T07:35:29;7.65;;;5.63;;
62704;SDS011;48767;50.754;8.772;2022-08-19T07:37:58;7.43;;;5.50;;
62704;SDS011;48767;50.754;8.772;2022-08-19T07:40:28;8.88;;;5.80;;
62704;SDS011;48767;50.754;8.772;2022-08-19T07:42:54;8.65;;;5.35;;
62704;SDS011;48767;50.754;8.772;2022-08-19T07:45:21;6.53;;;4.80;;
62704;SDS011;48767;50.754;8.772;2022-08-19T07:47:48;7.72;;;4.50;;
62704;SDS011;48767;50.754;8.772;2022-08-19T07:50:14;8.88;;;5.13;;
62704;SDS011;48767;50.754;8.772;2022-08-19T07:52:41;6.22;;;4.38;;
62704;SDS011;48767;50.754;8.772;2022-08-19T07:55:10;6.47;;;4.18;;
62704;SDS011;48767;50.754;8.772;2022-08-19T07:57:37;4.90;;;3.80;;
62704;SDS011;48767;50.754;8.772;2022-08-19T08:00:04;7.35;;;4.55;;
62704;SDS011;48767;50.754;8.772;2022-08-19T08:02:32;5.15;;;4.00;;
62704;SDS011;48767;50.754;8.772;2022-08-19T08:04:58;5.38;;;4.32;;
62704;SDS011;48767;50.754;8.772;2022-08-19T08:07:43;5.05;;;4.07;;
62704;SDS011;48767;50.754;8.772;2022-08-19T08:10:28;4.97;;;3.88;;
62704;SDS011;48767;50.754;8.772;2022-08-19T08:12:54;4.97;;;3.63;;
62704;SDS011;48767;50.754;8.772;2022-08-19T08:15:21;6.30;;;4.65;;
62704;SDS011;48767;50.754;8.772;2022-08-19T08:17:47;4.65;;;3.67;;
62704;SDS011;48767;50.754;8.772;2022-08-19T08:20:14;6.57;;;3.70;;
62704;SDS011;48767;50.754;8.772;2022-08-19T08:22:42;5.10;;;3.90;;
62704;SDS011;48767;50.754;8.772;2022-08-19T08:25:28;5.78;;;4.22;;
62704;SDS011;48767;50.754;8.772;2022-08-19T08:27:56;4.32;;;3.28;;
62704;SDS011;48767;50.754;8.772;2022-08-19T08:30:25;4.13;;;3.72;;
62704;SDS011;48767;50.754;8.772;2022-08-19T08:32:53;3.88;;;3.47;;
62704;SDS011;48767;50.754;8.772;2022-08-19T08:35:20;4.22;;;3.17;;
62704;SDS011;48767;50.754;8.772;2022-08-19T08:37:49;4.38;;;3.10;;
62704;SDS011;48767;50.754;8.772;2022-08-19T08:40:19;3.85;;;2.38;;
62704;SDS011;48767;50.754;8.772;2022-08-19T08:42:51;5.60;;;2.83;;
62704;SDS011;48767;50.754;8.772;2022-08-19T08:45:25;3.50;;;2.40;;
62704;SDS011;48767;50.754;8.772;2022-08-19T08:47:53;6.10;;;3.35;;
62704;SDS011;48767;50.754;8.772;2022-08-19T08:50:24;4.63;;;2.92;;
62704;SDS011;48767;50.754;8.772;2022-08-19T08:52:56;6.97;;;3.53;;
62704;SDS011;48767;50.754;8.772;2022-08-19T08:55:26;6.28;;;2.75;;
62704;SDS011;48767;50.754;8.772;2022-08-19T08:57:57;4.22;;;2.30;;
62704;SDS011;48767;50.754;8.772;2022-08-19T09:00:27;3.30;;;2.38;;
62704;SDS011;48767;50.754;8.772;2022-08-19T09:02:57;5.40;;;2.55;;
62704;SDS011;48767;50.754;8.772;2022-08-19T09:05:26;4.25;;;2.97;;
62704;SDS011;48767;50.754;8.772;2022-08-19T09:08:04;3.50;;;2.75;;
62704;SDS011;48767;50.754;8.772;2022-08-19T09:10:37;5.07;;;2.40;;
62704;SDS011;48767;50.754;8.772;2022-08-19T09:13:08;3.53;;;2.25;;
62704;SDS011;48767;50.754;8.772;2022-08-19T09:15:46;2.95;;;2.30;;
62704;SDS011;48767;50.754;8.772;2022-08-19T09:18:17;3.30;;;2.13;;
62704;SDS011;48767;50.754;8.772;2022-08-19T09:20:43;3.85;;;2.20;;
62704;SDS011;48767;50.754;8.772;2022-08-19T09:23:12;5.07;;;2.42;;
62704;SDS011;48767;50.754;8.772;2022-08-19T09:25:39;3.13;;;2.75;;
62704;SDS011;48767;50.754;8.772;2022-08-19T09:28:05;4.32;;;2.95;;
62704;SDS011;48767;50.754;8.772;2022-08-19T09:30:36;2.95;;;2.53;;
62704;SDS011;48767;50.754;8.772;2022-08-19T09:33:06;3.28;;;2.70;;
62704;SDS011;48767;50.754;8.772;2022-08-19T09:35:33;3.95;;;2.90;;
62704;SDS011;48767;50.754;8.772;2022-08-19T09:38:00;5.55;;;2.40;;
62704;SDS011;48767;50.754;8.772;2022-08-19T09:40:27;3.78;;;3.10;;
62704;SDS011;48767;50.754;8.772;2022-08-19T09:42:54;2.65;;;2.20;;
62704;SDS011;48767;50.754;8.772;2022-08-19T09:45:23;2.88;;;2.22;;
62704;SDS011;48767;50.754;8.772;2022-08-19T09:47:50;4.30;;;3.05;;
62704;SDS011;48767;50.754;8.772;2022-08-19T09:50:18;2.33;;;2.13;;
62704;SDS011;48767;50.754;8.772;2022-08-19T09:52:45;3.17;;;1.88;;
62704;SDS011;48767;50.754;8.772;2022-08-19T09:55:12;4.15;;;2.80;;
62704;SDS011;48767;50.754;8.772;2022-08-19T09:57:40;5.55;;;2.70;;
62704;SDS011;48767;50.754;8.772;2022-08-19T10:00:08;2.72;;;2.45;;
62704;SDS011;48767;50.754;8.772;2022-08-19T10:02:36;2.88;;;2.42;;
62704;SDS011;48767;50.754;8.772;2022-08-19T10:05:03;2.05;;;1.92;;
62704;SDS011;48767;50.754;8.772;2022-08-19T10:07:48;2.67;;;2.40;;
62704;SDS011;48767;50.754;8.772;2022-08-19T10:10:15;2.75;;;1.80;;
62704;SDS011;48767;50.754;8.772;2022-08-19T10:12:41;2.65;;;1.95;;
62704;SDS011;48767;50.754;8.772;2022-08-19T10:15:12;2.70;;;1.63;;
62704;SDS011;48767;50.754;8.772;2022-08-19T10:17:40;2.25;;;2.05;;
62704;SDS011;48767;50.754;8.772;2022-08-19T10:20:08;3.90;;;1.90;;
62704;SDS011;48767;50.754;8.772;2022-08-19T10:25:02;3.20;;;2.83;;
62704;SDS011;48767;50.754;8.772;2022-08-19T10:27:30;2.45;;;2.20;;
62704;SDS011;48767;50.754;8.772;2022-08-19T10:29:56;4.38;;;2.75;;
62704;SDS011;48767;50.754;8.772;2022-08-19T10:32:23;3.83;;;2.72;;
62704;SDS011;48767;50.754;8.772;2022-08-19T10:34:51;4.15;;;2.53;;
62704;SDS011;48767;50.754;8.772;2022-08-19T10:37:18;2.67;;;2.38;;
62704;SDS011;48767;50.754;8.772;2022-08-19T10:39:46;2.50;;;2.10;;
62704;SDS011;48767;50.754;8.772;2022-08-19T10:42:13;3.33;;;1.92;;
62704;SDS011;48767;50.754;8.772;2022-08-19T10:47:07;4.32;;;3.20;;
62704;SDS011;48767;50.754;8.772;2022-08-19T10:49:34;4.43;;;3.08;;
62704;SDS011;48767;50.754;8.772;2022-08-19T10:55:00;4.38;;;3.40;;
62704;SDS011;48767;50.754;8.772;2022-08-19T10:57:45;3.92;;;3.50;;
62704;SDS011;48767;50.754;8.772;2022-08-19T11:00:12;3.15;;;2.85;;
62704;SDS011;48767;50.754;8.772;2022-08-19T11:02:39;3.53;;;3.22;;
62704;SDS011;48767;50.754;8.772;2022-08-19T11:05:06;4.10;;;3.33;;
62704;SDS011;48767;50.754;8.772;2022-08-19T11:07:37;5.38;;;3.10;;
62704;SDS011;48767;50.754;8.772;2022-08-19T11:10:04;3.85;;;3.15;;
62704;SDS011;48767;50.754;8.772;2022-08-19T11:12:32;3.65;;;3.15;;
62704;SDS011;48767;50.754;8.772;2022-08-19T11:14:59;2.97;;;2.65;;
62704;SDS011;48767;50.754;8.772;2022-08-19T11:17:25;4.30;;;3.80;;
62704;SDS011;48767;50.754;8.772;2022-08-19T11:19:51;6.18;;;2.78;;
62704;SDS011;48767;50.754;8.772;2022-08-19T11:22:18;3.85;;;3.40;;
62704;SDS011;48767;50.754;8.772;2022-08-19T11:24:46;5.05;;;3.63;;
62704;SDS011;48767;50.754;8.772;2022-08-19T11:27:12;2.90;;;2.70;;
62704;SDS011;48767;50.754;8.772;2022-08-19T11:29:39;3.88;;;3.47;;
62704;SDS011;48767;50.754;8.772;2022-08-19T11:32:07;5.47;;;2.90;;
62704;SDS011;48767;50.754;8.772;2022-08-19T11:34:35;4.20;;;3.53;;
62704;SDS011;48767;50.754;8.772;2022-08-19T11:37:03;4.10;;;3.25;;
62704;SDS011;48767;50.754;8.772;2022-08-19T11:39:31;9.57;;;3.30;;
62704;SDS011;48767;50.754;8.772;2022-08-19T11:42:00;4.18;;;3.78;;
62704;SDS011;48767;50.754;8.772;2022-08-19T11:44:27;5.05;;;4.28;;
62704;SDS011;48767;50.754;8.772;2022-08-19T11:46:55;7.75;;;4.50;;
62704;SDS011;48767;50.754;8.772;2022-08-19T11:49:22;4.90;;;3.72;;
62704;SDS011;48767;50.754;8.772;2022-08-19T11:51:49;5.75;;;4.20;;
62704;SDS011;48767;50.754;8.772;2022-08-19T11:54:16;5.55;;;3.88;;
62704;SDS011;48767;50.754;8.772;2022-08-19T11:56:43;3.85;;;3.35;;
62704;SDS011;48767;50.754;8.772;2022-08-19T11:59:11;4.38;;;3.97;;
62704;SDS011;48767;50.754;8.772;2022-08-19T12:01:38;4.60;;;4.07;;
62704;SDS011;48767;50.754;8.772;2022-08-19T12:04:06;4.72;;;3.88;;
62704;SDS011;48767;50.754;8.772;2022-08-19T12:06:32;4.70;;;4.13;;
62704;SDS011;48767;50.754;8.772;2022-08-19T12:09:00;4.13;;;3.63;;
62704;SDS011;48767;50.754;8.772;2022-08-19T12:11:29;5.40;;;4.13;;
62704;SDS011;48767;50.754;8.772;2022-08-19T12:13:56;7.60;;;4.32;;
62704;SDS011;48767;50.754;8.772;2022-08-19T12:16:24;4.97;;;4.47;;
62704;SDS011;48767;50.754;8.772;2022-08-19T12:18:54;4.75;;;4.15;;
62704;SDS011;48767;50.754;8.772;2022-08-19T12:21:22;4.55;;;3.80;;
62704;SDS011;48767;50.754;8.772;2022-08-19T12:23:53;4.47;;;3.42;;
62704;SDS011;48767;50.754;8.772;2022-08-19T12:26:20;3.35;;;2.88;;
62704;SDS011;48767;50.754;8.772;2022-08-19T12:28:46;4.35;;;3.25;;
62704;SDS011;48767;50.754;8.772;2022-08-19T12:31:13;5.50;;;3.83;;
62704;SDS011;48767;50.754;8.772;2022-08-19T12:33:42;4.72;;;4.10;;
62704;SDS011;48767;50.754;8.772;2022-08-19T12:36:09;5.38;;;3.35;;
62704;SDS011;48767;50.754;8.772;2022-08-19T12:38:37;6.40;;;4.00;;
62704;SDS011;48767;50.754;8.772;2022-08-19T12:41:05;5.30;;;3.63;;
62704;SDS011;48767;50.754;8.772;2022-08-19T12:45:59;4.75;;;3.60;;
62704;SDS011;48767;50.754;8.772;2022-08-19T12:48:26;5.72;;;3.60;;
62704;SDS011;48767;50.754;8.772;2022-08-19T12:50:55;5.07;;;3.97;;
62704;SDS011;48767;50.754;8.772;2022-08-19T12:53:22;4.68;;;3.60;;
62704;SDS011;48767;50.754;8.772;2022-08-19T12:55:54;5.15;;;4.45;;
62704;SDS011;48767;50.754;8.772;2022-08-19T12:58:22;7.13;;;3.50;;
62704;SDS011;48767;50.754;8.772;2022-08-19T13:00:49;8.02;;;3.22;;
62704;SDS011;48767;50.754;8.772;2022-08-19T13:03:15;4.72;;;3.63;;
62704;SDS011;48767;50.754;8.772;2022-08-19T13:05:42;4.03;;;3.67;;
62704;SDS011;48767;50.754;8.772;2022-08-19T13:08:09;5.57;;;4.30;;
62704;SDS011;48767;50.754;8.772;2022-08-19T13:10:36;5.25;;;3.55;;
62704;SDS011;48767;50.754;8.772;2022-08-19T13:13:04;3.90;;;3.50;;
62704;SDS011;48767;50.754;8.772;2022-08-19T13:15:33;4.75;;;4.00;;
62704;SDS011;48767;50.754;8.772;2022-08-19T13:18:00;4.47;;;3.88;;
62704;SDS011;48767;50.754;8.772;2022-08-19T13:20:27;4.25;;;3.88;;
62704;SDS011;48767;50.754;8.772;2022-08-19T13:22:54;6.57;;;4.28;;
62704;SDS011;48767;50.754;8.772;2022-08-19T13:25:23;4.10;;;3.70;;
62704;SDS011;48767;50.754;8.772;2022-08-19T13:27:50;4.47;;;3.60;;
62704;SDS011;48767;50.754;8.772;2022-08-19T13:30:18;4.45;;;4.05;;
62704;SDS011;48767;50.754;8.772;2022-08-19T13:33:04;4.65;;;3.63;;
62704;SDS011;48767;50.754;8.772;2022-08-19T13:35:37;4.88;;;3.63;;
62704;SDS011;48767;50.754;8.772;2022-08-19T13:38:04;4.43;;;3.95;;
62704;SDS011;48767;50.754;8.772;2022-08-19T13:40:32;4.82;;;4.32;;
62704;SDS011;48767;50.754;8.772;2022-08-19T13:42:59;4.82;;;4.03;;
62704;SDS011;48767;50.754;8.772;2022-08-19T13:45:27;3.95;;;3.65;;
62704;SDS011;48767;50.754;8.772;2022-08-19T13:47:58;4.90;;;3.78;;
62704;SDS011;48767;50.754;8.772;2022-08-19T13:50:31;5.13;;;4.00;;
62704;SDS011;48767;50.754;8.772;2022-08-19T13:52:58;4.20;;;3.80;;
62704;SDS011;48767;50.754;8.772;2022-08-19T13:55:26;4.82;;;3.78;;
62704;SDS011;48767;50.754;8.772;2022-08-19T13:57:56;4.25;;;3.88;;
62704;SDS011;48767;50.754;8.772;2022-08-19T14:00:24;4.43;;;4.03;;
62704;SDS011;48767;50.754;8.772;2022-08-19T14:02:52;4.47;;;4.07;;
62704;SDS011;48767;50.754;8.772;2022-08-19T14:05:20;4.35;;;3.92;;
62704;SDS011;48767;50.754;8.772;2022-08-19T14:07:47;5.40;;;4.35;;
62704;SDS011;48767;50.754;8.772;2022-08-19T14:10:14;5.00;;;3.40;;
62704;SDS011;48767;50.754;8.772;2022-08-19T14:12:45;5.88;;;3.67;;
62704;SDS011;48767;50.754;8.772;2022-08-19T14:15:13;3.90;;;3.50;;
62704;SDS011;48767;50.754;8.772;2022-08-19T14:17:41;7.65;;;3.47;;
62704;SDS011;48767;50.754;8.772;2022-08-19T14:20:11;4.00;;;3.53;;
62704;SDS011;48767;50.754;8.772;2022-08-19T14:22:41;4.32;;;3.45;;
62704;SDS011;48767;50.754;8.772;2022-08-19T14:25:09;4.18;;;3.78;;
62704;SDS011;48767;50.754;8.772;2022-08-19T14:27:39;5.72;;;3.65;;
62704;SDS011;48767;50.754;8.772;2022-08-19T14:30:07;5.80;;;3.95;;
62704;SDS011;48767;50.754;8.772;2022-08-19T14:32:36;4.28;;;3.88;;
62704;SDS011;48767;50.754;8.772;2022-08-19T14:35:03;4.40;;;4.00;;
62704;SDS011;48767;50.754;8.772;2022-08-19T14:37:32;4.47;;;3.40;;
62704;SDS011;48767;50.754;8.772;2022-08-19T14:39:59;5.90;;;3.63;;
62704;SDS011;48767;50.754;8.772;2022-08-19T14:42:25;3.88;;;3.40;;
62704;SDS011;48767;50.754;8.772;2022-08-19T14:44:52;3.97;;;3.58;;
62704;SDS011;48767;50.754;8.772;2022-08-19T14:47:18;4.70;;;3.97;;
62704;SDS011;48767;50.754;8.772;2022-08-19T14:49:46;4.82;;;3.88;;
62704;SDS011;48767;50.754;8.772;2022-08-19T14:52:13;5.38;;;3.70;;
62704;SDS011;48767;50.754;8.772;2022-08-19T14:54:39;5.07;;;3.38;;
62704;SDS011;48767;50.754;8.772;2022-08-19T14:57:06;4.20;;;3.80;;
62704;SDS011;48767;50.754;8.772;2022-08-19T14:59:34;5.00;;;3.90;;
62704;SDS011;48767;50.754;8.772;2022-08-19T15:02:00;6.38;;;4.28;;
62704;SDS011;48767;50.754;8.772;2022-08-19T15:04:27;13.40;;;4.72;;
62704;SDS011;48767;50.754;8.772;2022-08-19T15:06:54;4.32;;;3.92;;
62704;SDS011;48767;50.754;8.772;2022-08-19T15:09:21;5.03;;;4.22;;
62704;SDS011;48767;50.754;8.772;2022-08-19T15:11:47;4.80;;;4.20;;
62704;SDS011;48767;50.754;8.772;2022-08-19T15:14:14;4.85;;;4.35;;